Time;durP1;ratioP1;P1;durP2;ratioP2;P2;SDS_P1;SDS_P2;PMS_P1;PMS_P2;Temp;Humidity;BMP_temperature;BMP_pressure;BME280_temperature;BME280_humidity;BME280_pressure;Samples;Min_cycle;Max_cycle;Signal;HPM_P1;HPM_P2
2022/04/09 00:02:20;;;;;;;10.13;2.50;;;4.80;99.90;;;;;;5135590;27;20436;-84
2022/04/09 00:04:48;;;;;;;8.80;2.70;;;4.80;99.90;;;;;;5135847;27;20451;-85
2022/04/09 00:07:18;;;;;;;14.77;2.97;;;4.70;99.90;;;;;;5135628;27;20795;-85
2022/04/09 00:09:51;;;;;;;9.43;2.27;;;4.70;99.90;;;;;;5135883;27;20428;-86
2022/04/09 00:12:18;;;;;;;9.20;3.30;;;4.70;99.90;;;;;;5135994;27;20465;-85
2022/04/09 00:14:47;;;;;;;15.63;2.60;;;4.70;99.90;;;;;;5134322;27;20472;-85
2022/04/09 00:17:15;;;;;;;5.17;1.90;;;4.70;99.90;;;;;;5135513;27;20428;-85
2022/04/09 00:19:43;;;;;;;10.27;2.87;;;4.60;99.90;;;;;;5135369;27;20443;-87
2022/04/09 00:22:12;;;;;;;10.33;2.90;;;4.70;99.90;;;;;;5133814;27;20444;-85
2022/04/09 00:24:42;;;;;;;11.63;2.33;;;4.70;99.90;;;;;;5135244;27;20432;-85
2022/04/09 00:27:14;;;;;;;8.23;2.23;;;4.70;99.90;;;;;;5135576;27;20436;-85
2022/04/09 00:29:42;;;;;;;9.57;2.63;;;4.70;99.90;;;;;;5135514;27;20455;-87
2022/04/09 00:32:15;;;;;;;11.67;2.90;;;4.80;99.90;;;;;;5135392;27;20431;-85
2022/04/09 00:34:48;;;;;;;11.13;2.73;;;4.70;99.90;;;;;;5135299;27;20502;-85
2022/04/09 00:37:16;;;;;;;8.47;2.23;;;4.70;99.90;;;;;;5134855;27;20444;-86
2022/04/09 00:39:50;;;;;;;9.63;2.60;;;4.80;99.90;;;;;;5135235;27;20458;-85
2022/04/09 00:42:23;;;;;;;11.27;2.50;;;4.80;99.90;;;;;;5134785;27;20452;-86
2022/04/09 00:44:56;;;;;;;10.53;2.90;;;4.80;99.90;;;;;;5134854;27;20444;-84
2022/04/09 00:47:37;;;;;;;12.00;3.13;;;4.80;99.90;;;;;;5132426;27;20925;-87
2022/04/09 00:50:06;;;;;;;9.50;2.40;;;5.00;99.90;;;;;;5134668;27;20192;-88
2022/04/09 00:52:46;;;;;;;14.60;2.60;;;5.00;99.90;;;;;;5134703;27;20440;-87
2022/04/09 00:55:18;;;;;;;13.67;3.40;;;5.10;99.90;;;;;;5134663;27;20486;-86
2022/04/09 00:57:51;;;;;;;14.60;2.43;;;5.00;99.90;;;;;;5134935;27;20443;-85
2022/04/09 01:00:21;;;;;;;14.90;3.13;;;5.00;99.90;;;;;;5134982;27;20471;-86
2022/04/09 01:02:51;;;;;;;10.70;3.00;;;5.00;99.90;;;;;;5134997;27;20420;-86
2022/04/09 01:05:18;;;;;;;11.00;2.30;;;5.10;99.90;;;;;;5134484;27;20436;-85
2022/04/09 01:07:47;;;;;;;10.97;2.87;;;5.10;99.90;;;;;;5134852;27;20214;-87
2022/04/09 01:10:24;;;;;;;12.87;2.87;;;5.10;99.90;;;;;;5134915;27;20431;-85
2022/04/09 01:12:51;;;;;;;11.13;2.40;;;5.10;99.90;;;;;;5134076;27;20451;-87
2022/04/09 01:15:17;;;;;;;9.57;2.20;;;5.00;99.90;;;;;;5134753;27;20479;-84
2022/04/09 01:17:44;;;;;;;7.57;2.60;;;4.90;99.90;;;;;;5135157;27;20444;-86
2022/04/09 01:20:17;;;;;;;14.37;2.80;;;4.90;99.90;;;;;;5134559;27;20413;-86
2022/04/09 01:22:49;;;;;;;10.87;2.47;;;4.80;99.90;;;;;;5135242;27;20424;-84
2022/04/09 01:25:22;;;;;;;8.17;2.60;;;4.80;99.90;;;;;;5134949;27;20461;-87
2022/04/09 01:27:56;;;;;;;6.30;2.23;;;4.80;99.90;;;;;;5138770;27;20428;-85
2022/04/09 01:30:25;;;;;;;9.20;2.70;;;4.70;99.90;;;;;;5139197;27;20431;-83
2022/04/09 01:32:53;;;;;;;9.30;2.20;;;4.60;99.90;;;;;;5138173;27;20440;-85
2022/04/09 01:35:26;;;;;;;7.97;2.20;;;4.50;99.90;;;;;;5138642;27;20487;-85
2022/04/09 01:37:54;;;;;;;11.27;2.80;;;4.50;99.90;;;;;;5138676;27;20455;-85
2022/04/09 01:40:24;;;;;;;15.63;2.93;;;4.50;99.90;;;;;;5138370;27;20439;-85
2022/04/09 01:42:52;;;;;;;8.80;2.83;;;4.50;99.90;;;;;;5138352;27;20448;-86
2022/04/09 01:45:19;;;;;;;6.97;2.17;;;4.40;99.90;;;;;;5138472;27;20440;-85
2022/04/09 01:47:46;;;;;;;13.27;2.70;;;4.40;99.90;;;;;;5138026;27;20432;-81
2022/04/09 01:50:13;;;;;;;19.30;3.00;;;4.50;99.90;;;;;;5138395;27;20424;-80
2022/04/09 01:52:40;;;;;;;11.70;3.30;;;4.40;99.90;;;;;;5138305;27;20450;-84
2022/04/09 01:55:09;;;;;;;15.80;3.03;;;4.50;99.90;;;;;;5138727;27;21008;-82
2022/04/09 01:57:39;;;;;;;9.30;2.20;;;4.50;99.90;;;;;;5139061;27;20424;-81
2022/04/09 02:00:10;;;;;;;13.37;2.80;;;4.50;99.90;;;;;;5139727;27;20428;-80
2022/04/09 02:02:37;;;;;;;7.27;2.70;;;4.60;99.90;;;;;;5138337;27;20440;-81
2022/04/09 02:05:05;;;;;;;9.00;2.60;;;4.50;99.90;;;;;;5138262;27;20432;-85
2022/04/09 02:07:31;;;;;;;12.53;2.80;;;4.30;99.90;;;;;;5138655;27;20424;-83
2022/04/09 02:09:58;;;;;;;13.57;2.50;;;4.30;99.90;;;;;;5138013;27;20431;-87
2022/04/09 02:12:31;;;;;;;11.20;2.67;;;4.30;99.90;;;;;;5138227;27;20450;-85
2022/04/09 02:14:58;;;;;;;18.60;3.10;;;4.30;99.90;;;;;;5138202;27;20475;-84
2022/04/09 02:17:26;;;;;;;10.83;3.03;;;4.20;99.90;;;;;;5137331;27;20428;-83
2022/04/09 02:19:59;;;;;;;10.97;3.47;;;4.20;99.90;;;;;;5137654;27;20451;-84
2022/04/09 02:22:26;;;;;;;10.20;3.30;;;4.20;99.90;;;;;;5137496;27;20436;-83
2022/04/09 02:24:55;;;;;;;16.77;3.10;;;4.20;99.90;;;;;;5137363;27;20934;-83
2022/04/09 02:27:22;;;;;;;12.13;3.70;;;4.30;99.90;;;;;;5136475;27;20763;-87
2022/04/09 02:29:53;;;;;;;12.13;3.47;;;4.20;99.90;;;;;;5137221;27;20220;-84
2022/04/09 02:32:20;;;;;;;10.47;3.07;;;4.20;99.90;;;;;;5136929;27;20450;-83
2022/04/09 02:34:49;;;;;;;16.37;3.70;;;4.10;99.90;;;;;;5137126;27;20480;-84
2022/04/09 02:37:16;;;;;;;8.60;3.03;;;4.20;99.90;;;;;;5137350;27;20439;-86
2022/04/09 02:39:45;;;;;;;15.70;3.77;;;4.10;99.90;;;;;;5136746;27;20451;-85
2022/04/09 02:42:12;;;;;;;12.97;3.97;;;4.10;99.90;;;;;;5136711;27;20448;-83
2022/04/09 02:44:43;;;;;;;18.37;3.83;;;4.10;99.90;;;;;;5136536;27;20913;-84
2022/04/09 02:47:14;;;;;;;12.27;3.77;;;4.00;99.90;;;;;;5136346;27;20841;-85
2022/04/09 02:49:47;;;;;;;13.93;3.67;;;3.90;99.90;;;;;;5136650;27;20930;-85
2022/04/09 02:52:14;;;;;;;13.63;4.30;;;3.90;99.90;;;;;;5135668;27;20419;-84
2022/04/09 02:54:41;;;;;;;14.07;3.60;;;3.90;99.90;;;;;;5136719;27;20219;-86
2022/04/09 02:57:07;;;;;;;13.37;4.33;;;3.90;99.90;;;;;;5136465;27;20907;-84
2022/04/09 02:59:40;;;;;;;14.90;3.50;;;3.90;99.90;;;;;;5136829;27;20444;-86
2022/04/09 03:02:09;;;;;;;13.13;3.70;;;3.90;99.90;;;;;;5136408;27;20444;-85
2022/04/09 03:04:39;;;;;;;19.77;4.30;;;3.80;99.90;;;;;;5136620;27;20443;-84
2022/04/09 03:07:06;;;;;;;13.00;3.97;;;3.80;99.90;;;;;;5136714;27;20459;-85
2022/04/09 03:09:33;;;;;;;11.90;4.07;;;3.70;99.90;;;;;;5136490;27;20439;-85
2022/04/09 03:11:59;;;;;;;8.70;3.40;;;3.70;99.90;;;;;;5136543;27;20451;-84
2022/04/09 03:14:26;;;;;;;16.20;4.03;;;3.70;99.90;;;;;;5136166;27;20439;-85
2022/04/09 03:16:55;;;;;;;16.60;5.13;;;3.70;99.90;;;;;;5135569;27;20766;-86
2022/04/09 03:19:22;;;;;;;15.70;3.97;;;3.70;99.90;;;;;;5136662;27;20207;-86
2022/04/09 03:21:56;;;;;;;12.67;3.97;;;3.70;99.90;;;;;;5136251;27;20428;-87
2022/04/09 03:24:29;;;;;;;16.50;4.33;;;3.60;99.90;;;;;;5136319;27;20908;-86
2022/04/09 03:26:57;;;;;;;14.73;3.43;;;3.60;99.90;;;;;;5136656;27;20432;-87
2022/04/09 03:29:28;;;;;;;9.27;3.80;;;3.60;99.90;;;;;;5136082;27;20466;-86
2022/04/09 03:31:57;;;;;;;10.80;4.10;;;3.60;99.90;;;;;;5136164;27;20502;-85
2022/04/09 03:34:24;;;;;;;13.67;3.93;;;3.70;99.90;;;;;;5136589;27;20432;-87
2022/04/09 03:36:58;;;;;;;10.73;3.63;;;3.60;99.90;;;;;;5136022;27;20474;-86
2022/04/09 03:39:31;;;;;;;15.80;5.27;;;3.70;99.90;;;;;;5135843;27;20454;-86
2022/04/09 03:42:00;;;;;;;11.27;3.90;;;3.80;99.90;;;;;;5136192;27;20790;-87
2022/04/09 03:44:33;;;;;;;17.47;4.23;;;3.80;99.90;;;;;;5135697;27;20424;-86
2022/04/09 03:47:05;;;;;;;14.67;4.03;;;3.90;99.90;;;;;;5136069;27;20447;-87
2022/04/09 03:49:34;;;;;;;14.20;3.80;;;3.80;99.90;;;;;;5135982;27;20795;-86
2022/04/09 03:52:05;;;;;;;12.80;4.10;;;4.00;99.90;;;;;;5135876;27;20811;-85
2022/04/09 03:54:37;;;;;;;13.97;3.47;;;4.00;99.90;;;;;;5135838;27;20961;-86
2022/04/09 03:57:04;;;;;;;15.10;3.90;;;4.10;99.90;;;;;;5135981;27;20449;-87
2022/04/09 03:59:31;;;;;;;17.47;3.57;;;4.10;99.90;;;;;;5135696;27;20436;-87
2022/04/09 04:02:00;;;;;;;18.83;4.07;;;4.10;99.90;;;;;;5135754;27;20444;-84
2022/04/09 04:04:27;;;;;;;19.13;4.40;;;4.20;99.90;;;;;;5135964;27;20563;-86
2022/04/09 04:07:00;;;;;;;18.87;3.60;;;4.20;99.90;;;;;;5135645;27;20428;-87
2022/04/09 04:09:34;;;;;;;10.53;4.03;;;4.30;99.90;;;;;;5135717;27;20866;-86
2022/04/09 04:12:01;;;;;;;16.20;4.17;;;4.30;99.90;;;;;;5135381;27;20448;-88
2022/04/09 04:14:39;;;;;;;12.67;3.70;;;4.20;99.90;;;;;;5135013;27;20440;-86
2022/04/09 04:17:07;;;;;;;14.07;4.00;;;4.30;99.90;;;;;;5135263;27;20494;-85
2022/04/09 04:19:36;;;;;;;21.43;4.30;;;4.10;99.90;;;;;;5135413;27;20930;-85
2022/04/09 04:22:04;;;;;;;15.87;4.23;;;4.20;99.90;;;;;;5135564;27;20469;-83
2022/04/09 04:24:38;;;;;;;18.10;3.97;;;4.30;99.90;;;;;;5135102;27;20428;-86
2022/04/09 04:27:08;;;;;;;15.83;4.07;;;4.20;99.90;;;;;;5135553;27;20465;-86
2022/04/09 04:29:38;;;;;;;15.77;3.30;;;4.20;99.90;;;;;;5135180;27;20468;-87
2022/04/09 04:32:10;;;;;;;21.73;4.43;;;4.20;99.90;;;;;;5135196;27;20420;-85
2022/04/09 04:34:43;;;;;;;11.67;3.50;;;4.20;99.90;;;;;;5135277;27;20469;-86
2022/04/09 04:37:16;;;;;;;19.47;3.63;;;4.20;99.90;;;;;;5134819;27;20483;-87
2022/04/09 04:39:50;;;;;;;14.63;4.03;;;4.10;99.90;;;;;;5135000;27;20452;-86
2022/04/09 04:42:20;;;;;;;16.23;3.50;;;4.20;99.90;;;;;;5135386;27;20816;-89
2022/04/09 04:44:52;;;;;;;11.97;3.77;;;4.20;99.90;;;;;;5134949;27;20512;-89
2022/04/09 04:47:25;;;;;;;15.87;3.90;;;4.20;99.90;;;;;;5135448;27;20444;-86
2022/04/09 04:49:54;;;;;;;15.60;4.07;;;4.10;99.90;;;;;;5135006;27;20569;-86
2022/04/09 04:52:24;;;;;;;16.93;3.63;;;4.10;99.90;;;;;;5135022;27;20435;-86
2022/04/09 04:54:58;;;;;;;21.30;4.37;;;4.10;99.90;;;;;;5134723;27;20428;-86
2022/04/09 04:57:26;;;;;;;15.03;4.00;;;4.10;99.90;;;;;;5134456;27;20455;-89
2022/04/09 04:59:59;;;;;;;17.47;3.53;;;4.00;99.90;;;;;;5134931;27;20452;-85
2022/04/09 05:02:26;;;;;;;14.37;4.10;;;4.00;99.90;;;;;;5127726;27;20477;-88
2022/04/09 05:04:53;;;;;;;15.00;4.23;;;4.00;99.90;;;;;;5114021;28;20436;-84
2022/04/09 05:07:20;;;;;;;16.27;3.83;;;4.00;99.90;;;;;;5113871;28;20429;-85
2022/04/09 05:09:47;;;;;;;12.00;3.80;;;4.00;99.90;;;;;;5114113;28;20448;-85
2022/04/09 05:12:18;;;;;;;16.03;4.27;;;3.90;99.90;;;;;;5113939;27;20468;-88
2022/04/09 05:14:47;;;;;;;15.33;3.87;;;4.00;99.90;;;;;;5114076;28;20426;-87
2022/04/09 05:17:14;;;;;;;11.90;3.93;;;4.00;99.90;;;;;;5114056;28;20469;-86
2022/04/09 05:19:42;;;;;;;13.97;4.07;;;4.00;99.90;;;;;;5113992;28;20452;-86
2022/04/09 05:22:14;;;;;;;14.17;3.30;;;4.00;99.90;;;;;;5114164;27;20444;-87
2022/04/09 05:24:47;;;;;;;17.50;4.23;;;4.00;99.90;;;;;;5114051;27;20445;-87
2022/04/09 05:27:15;;;;;;;14.37;3.63;;;4.00;99.90;;;;;;5114055;27;20513;-86
2022/04/09 05:29:44;;;;;;;22.37;4.10;;;4.00;99.90;;;;;;5113911;28;20456;-85
2022/04/09 05:32:11;;;;;;;15.70;3.67;;;4.00;99.90;;;;;;5113883;28;20437;-84
2022/04/09 05:34:38;;;;;;;19.23;4.10;;;4.10;99.90;;;;;;5114050;28;20444;-86
2022/04/09 05:37:11;;;;;;;14.50;4.10;;;4.10;99.90;;;;;;5114088;28;20483;-85
2022/04/09 05:39:46;;;;;;;11.93;3.20;;;4.10;99.90;;;;;;5113522;28;20455;-85
2022/04/09 05:42:26;;;;;;;15.43;3.83;;;4.20;99.90;;;;;;5114170;28;20491;-86
2022/04/09 05:44:56;;;;;;;17.93;4.57;;;4.20;99.90;;;;;;5113961;28;20467;-85
2022/04/09 05:47:26;;;;;;;18.08;4.70;;;4.20;99.90;;;;;;5113559;28;20436;-86
2022/04/09 05:49:57;;;;;;;13.87;3.77;;;4.30;99.90;;;;;;5113860;28;20239;-84
2022/04/09 05:52:25;;;;;;;16.47;4.47;;;4.30;99.90;;;;;;5114122;28;20439;-86
2022/04/09 05:54:58;;;;;;;21.87;3.93;;;4.40;99.90;;;;;;5113696;28;20795;-85
2022/04/09 05:57:27;;;;;;;15.13;4.43;;;4.40;99.90;;;;;;5113788;28;20480;-85
2022/04/09 05:59:58;;;;;;;16.07;3.93;;;4.40;99.90;;;;;;5113656;28;20440;-87
2022/04/09 06:02:30;;;;;;;15.43;3.87;;;4.50;99.90;;;;;;5113749;28;20448;-85
2022/04/09 06:04:57;;;;;;;15.33;3.90;;;4.60;99.90;;;;;;5113581;27;20445;-87
2022/04/09 06:07:27;;;;;;;17.00;3.17;;;4.50;99.90;;;;;;5113432;28;20812;-85
2022/04/09 06:09:54;;;;;;;13.07;3.03;;;4.50;99.90;;;;;;5113406;28;20433;-85
2022/04/09 06:12:24;;;;;;;12.37;3.90;;;4.60;99.90;;;;;;5113873;28;20459;-86
2022/04/09 06:14:51;;;;;;;12.13;3.50;;;4.70;99.90;;;;;;5117393;28;20433;-86
2022/04/09 06:17:20;;;;;;;15.57;3.83;;;4.80;99.90;;;;;;5117016;28;20488;-87
2022/04/09 06:19:48;;;;;;;13.27;2.93;;;4.80;99.90;;;;;;5117927;28;20538;-87
2022/04/09 06:22:18;;;;;;;12.47;3.90;;;4.90;99.90;;;;;;5117156;27;20475;-86
2022/04/09 06:24:48;;;;;;;15.43;3.87;;;5.10;99.90;;;;;;5116765;27;20821;-87
2022/04/09 06:27:15;;;;;;;18.27;4.27;;;5.00;99.90;;;;;;5117341;27;20437;-85
2022/04/09 06:29:45;;;;;;;22.70;3.90;;;5.00;99.90;;;;;;5116908;27;20473;-85
2022/04/09 06:32:13;;;;;;;17.37;4.00;;;5.00;99.90;;;;;;5117042;27;20440;-87
2022/04/09 06:34:42;;;;;;;14.93;3.50;;;5.10;99.90;;;;;;5116932;28;20429;-85
2022/04/09 06:37:09;;;;;;;14.93;3.50;;;5.20;99.90;;;;;;5116672;28;20479;-85
2022/04/09 06:39:37;;;;;;;13.47;2.87;;;5.30;99.90;;;;;;5116533;27;20460;-85
2022/04/09 06:42:04;;;;;;;15.47;3.87;;;5.30;99.90;;;;;;5116529;28;20487;-84
2022/04/09 06:44:37;;;;;;;16.50;4.20;;;5.40;99.90;;;;;;5116674;28;20448;-86
2022/04/09 06:47:08;;;;;;;19.43;3.70;;;5.50;99.90;;;;;;5117110;28;20199;-87
2022/04/09 06:49:46;;;;;;;16.77;3.87;;;5.60;99.90;;;;;;5117554;28;20197;-84
2022/04/09 06:52:13;;;;;;;13.33;3.80;;;5.60;99.90;;;;;;5117314;28;20421;-87
2022/04/09 06:54:42;;;;;;;17.60;4.00;;;5.60;99.90;;;;;;5116306;27;20543;-87
2022/04/09 06:57:09;;;;;;;11.63;3.43;;;5.70;99.90;;;;;;5116406;28;20216;-85
2022/04/09 06:59:35;;;;;;;13.07;4.17;;;5.80;99.90;;;;;;5116442;27;21119;-88
2022/04/09 07:02:03;;;;;;;12.07;3.43;;;5.80;99.90;;;;;;5122939;27;20203;-84
2022/04/09 07:04:30;;;;;;;15.07;4.07;;;6.00;99.90;;;;;;5124728;27;20199;-84
2022/04/09 07:06:58;;;;;;;17.47;3.97;;;6.20;99.90;;;;;;5134487;27;20204;-85
2022/04/09 07:09:25;;;;;;;17.27;4.07;;;6.20;99.90;;;;;;5130516;27;20279;-86
2022/04/09 07:11:53;;;;;;;12.87;3.03;;;6.20;99.90;;;;;;5133641;27;20203;-88
2022/04/09 07:14:20;;;;;;;11.97;3.00;;;6.30;99.90;;;;;;5136733;27;20583;-86
2022/04/09 07:16:48;;;;;;;16.73;4.00;;;6.40;99.90;;;;;;5136438;27;20557;-86
2022/04/09 07:19:16;;;;;;;10.73;3.53;;;6.40;99.90;;;;;;5136996;27;20225;-86
2022/04/09 07:21:49;;;;;;;14.73;3.73;;;6.50;99.90;;;;;;5136082;27;20195;-86
2022/04/09 07:24:19;;;;;;;14.93;4.50;;;6.60;99.90;;;;;;5136535;27;20184;-89
2022/04/09 07:26:47;;;;;;;13.07;4.00;;;6.60;99.90;;;;;;5133868;27;20181;-87
2022/04/09 07:29:13;;;;;;;16.08;4.20;;;6.60;99.90;;;;;;5121811;27;20457;-87
2022/04/09 07:31:41;;;;;;;12.47;3.73;;;6.80;99.90;;;;;;5138259;27;20196;-85
2022/04/09 07:34:08;;;;;;;9.83;3.00;;;6.80;99.90;;;;;;5141672;27;20208;-87
2022/04/09 07:36:36;;;;;;;8.50;2.93;;;6.90;99.90;;;;;;5139733;27;20220;-84
2022/04/09 07:39:03;;;;;;;12.20;3.30;;;7.00;99.90;;;;;;5138905;27;20264;-88
2022/04/09 07:41:31;;;;;;;8.93;3.07;;;7.10;99.90;;;;;;5138200;27;20693;-86
2022/04/09 07:44:01;;;;;;;11.70;2.80;;;7.10;99.90;;;;;;5138373;27;20203;-88
2022/04/09 07:46:28;;;;;;;10.37;3.17;;;7.10;99.90;;;;;;5124804;27;20212;-85
2022/04/09 07:49:01;;;;;;;9.73;3.00;;;7.20;99.90;;;;;;5123372;27;20693;-87
2022/04/09 07:51:30;;;;;;;12.80;3.53;;;7.20;99.90;;;;;;5135495;27;20204;-86
2022/04/09 07:53:57;;;;;;;10.43;3.63;;;7.30;99.90;;;;;;5123932;27;20940;-84
2022/04/09 07:56:24;;;;;;;7.23;2.97;;;7.30;99.90;;;;;;5121340;27;20216;-84
2022/04/09 07:59:02;;;;;;;14.77;3.43;;;7.30;99.90;;;;;;5118900;27;20207;-88
2022/04/09 08:01:31;;;;;;;8.80;2.70;;;7.50;99.90;;;;;;5115552;28;20185;-91
2022/04/09 08:03:58;;;;;;;13.13;3.60;;;7.50;99.90;;;;;;5117594;27;20199;-88
2022/04/09 08:06:33;;;;;;;11.43;3.40;;;7.50;99.90;;;;;;5123095;27;20185;-88
2022/04/09 08:09:00;;;;;;;6.60;2.70;;;7.60;99.90;;;;;;5131591;27;20211;-89
2022/04/09 08:11:28;;;;;;;9.83;3.10;;;7.60;99.90;;;;;;5135883;27;20208;-89
2022/04/09 08:13:57;;;;;;;12.03;3.47;;;7.60;99.90;;;;;;5136814;27;20204;-85
2022/04/09 08:16:25;;;;;;;8.90;3.23;;;7.80;99.90;;;;;;5134885;27;20216;-84
2022/04/09 08:18:53;;;;;;;9.10;3.57;;;7.90;99.90;;;;;;5117579;27;20662;-87
2022/04/09 08:21:26;;;;;;;10.77;3.27;;;7.80;99.90;;;;;;5116112;28;20197;-89
2022/04/09 08:23:55;;;;;;;12.03;3.63;;;7.90;99.90;;;;;;5115216;28;20197;-88
2022/04/09 08:26:21;;;;;;;11.17;3.03;;;7.90;99.90;;;;;;5127867;27;20184;-88
2022/04/09 08:28:49;;;;;;;9.20;3.83;;;8.00;99.90;;;;;;5135113;27;20306;-83
2022/04/09 08:31:16;;;;;;;8.90;3.30;;;8.00;99.90;;;;;;5119270;27;20188;-84
2022/04/09 08:33:45;;;;;;;7.13;3.57;;;8.10;99.90;;;;;;5115727;28;20188;-78
2022/04/09 08:36:13;;;;;;;8.33;3.63;;;8.20;99.90;;;;;;5113790;28;20194;-80
2022/04/09 08:38:40;;;;;;;8.13;3.80;;;8.30;99.90;;;;;;5114252;28;20208;-80
2022/04/09 08:41:07;;;;;;;7.17;3.67;;;8.20;99.90;;;;;;5114073;28;20223;-81
2022/04/09 08:43:38;;;;;;;10.13;3.63;;;8.20;99.90;;;;;;5114410;27;20636;-84
2022/04/09 08:46:06;;;;;;;6.07;3.23;;;8.30;99.90;;;;;;5114054;28;20228;-82
2022/04/09 08:48:37;;;;;;;8.90;3.57;;;8.20;99.90;;;;;;5113499;28;20193;-84
2022/04/09 08:51:05;;;;;;;11.00;5.63;;;8.10;99.90;;;;;;5113767;28;20212;-82
2022/04/09 08:53:36;;;;;;;8.07;3.47;;;8.30;99.90;;;;;;5114134;28;20193;-83
2022/04/09 08:56:06;;;;;;;9.50;3.97;;;8.50;99.90;;;;;;5113850;27;20534;-86
2022/04/09 08:58:33;;;;;;;8.03;3.53;;;8.50;99.90;;;;;;5113366;27;20236;-85
2022/04/09 09:01:02;;;;;;;11.70;4.10;;;8.60;99.90;;;;;;5113652;28;20667;-82
2022/04/09 09:03:30;;;;;;;5.80;3.40;;;8.60;99.90;;;;;;5113911;28;20185;-80
2022/04/09 09:05:58;;;;;;;8.63;3.17;;;8.80;99.90;;;;;;5114289;27;20223;-81
2022/04/09 09:08:41;;;;;;;6.47;3.10;;;8.80;99.90;;;;;;5113559;28;20195;-83
2022/04/09 09:11:08;;;;;;;6.17;2.73;;;9.10;99.90;;;;;;5113620;28;20246;-86
2022/04/09 09:13:47;;;;;;;6.43;2.70;;;9.00;99.90;;;;;;5113859;28;20201;-82
2022/04/09 09:16:25;;;;;;;7.57;2.70;;;8.90;99.90;;;;;;5113808;28;20192;-81
2022/04/09 09:18:55;;;;;;;8.80;3.57;;;8.90;99.90;;;;;;5113365;28;20644;-82
2022/04/09 09:21:26;;;;;;;12.77;3.20;;;9.00;99.90;;;;;;5124593;27;20188;-81
2022/04/09 09:24:12;;;;;;;6.23;2.60;;;9.10;99.90;;;;;;5134396;27;20199;-80
2022/04/09 09:26:39;;;;;;;7.47;2.60;;;9.10;99.90;;;;;;5134465;27;20192;-82
2022/04/09 09:29:08;;;;;;;8.20;2.97;;;8.90;99.90;;;;;;5133992;27;20694;-82
2022/04/09 09:31:42;;;;;;;3.73;2.67;;;8.90;99.90;;;;;;5133987;27;20204;-82
2022/04/09 09:34:10;;;;;;;5.23;2.00;;;9.00;99.90;;;;;;5133952;27;20535;-83
2022/04/09 09:36:40;;;;;;;5.03;2.60;;;9.10;99.90;;;;;;5133920;27;20655;-82
2022/04/09 09:39:09;;;;;;;5.70;3.10;;;9.30;99.90;;;;;;5133532;27;20260;-80
2022/04/09 09:41:36;;;;;;;4.53;2.13;;;9.40;99.90;;;;;;5133658;27;20206;-78
2022/04/09 09:44:04;;;;;;;5.50;2.43;;;9.80;99.90;;;;;;5133645;27;20219;-82
2022/04/09 09:46:31;;;;;;;3.63;2.13;;;9.80;99.90;;;;;;5133572;27;20203;-80
2022/04/09 09:48:58;;;;;;;7.27;2.60;;;9.90;99.90;;;;;;5137578;27;20199;-79
2022/04/09 09:51:26;;;;;;;8.37;2.13;;;10.00;99.90;;;;;;5137600;27;20204;-81
2022/04/09 09:54:05;;;;;;;6.80;2.00;;;9.90;99.90;;;;;;5138659;27;20204;-80
2022/04/09 09:56:37;;;;;;;3.03;2.03;;;9.70;99.90;;;;;;5140474;27;20646;-84
2022/04/09 09:59:06;;;;;;;5.25;2.63;;;9.50;99.90;;;;;;5137244;27;20774;-83
2022/04/09 10:01:36;;;;;;;4.50;2.63;;;9.70;99.90;;;;;;5137957;27;20235;-83
2022/04/09 10:04:04;;;;;;;6.73;2.37;;;9.60;99.90;;;;;;5139456;27;20200;-79
2022/04/09 10:06:33;;;;;;;4.50;2.50;;;9.50;99.90;;;;;;5140374;27;20200;-80
2022/04/09 10:09:00;;;;;;;10.57;3.40;;;9.50;99.90;;;;;;5140625;27;20214;-88
2022/04/09 10:11:28;;;;;;;6.47;2.60;;;9.70;99.90;;;;;;5139821;27;20211;-92
2022/04/09 10:13:58;;;;;;;5.03;2.60;;;9.50;99.90;;;;;;5140329;27;20683;-83
2022/04/09 10:16:28;;;;;;;6.03;2.77;;;9.40;99.90;;;;;;5140598;27;20325;-90
2022/04/09 10:19:00;;;;;;;6.80;2.60;;;9.40;99.90;;;;;;5140698;27;20345;-92
2022/04/09 10:21:28;;;;;;;7.40;3.00;;;9.50;99.90;;;;;;5137786;27;20655;-83
2022/04/09 10:23:57;;;;;;;5.60;2.60;;;9.50;99.90;;;;;;5140440;27;20214;-91
2022/04/09 10:26:24;;;;;;;6.27;2.93;;;9.60;99.90;;;;;;5140261;27;20260;-87
2022/04/09 10:28:52;;;;;;;7.93;3.13;;;9.70;99.90;;;;;;5143072;27;20230;-93
2022/04/09 10:31:38;;;;;;;4.63;2.57;;;9.80;99.90;;;;;;5132703;27;20192;-86
2022/04/09 10:34:07;;;;;;;6.50;3.23;;;9.60;99.90;;;;;;5130084;27;20201;-87
2022/04/09 10:37:04;;;;;;;4.43;2.13;;;9.50;99.90;;;;;;5130433;27;20199;-90
2022/04/09 10:39:53;;;;;;;5.53;2.67;;;9.50;99.90;;;;;;5127177;27;20204;-89
2022/04/09 10:42:49;;;;;;;4.03;2.97;;;9.40;99.90;;;;;;5118831;28;20204;-91
2022/04/09 10:45:16;;;;;;;5.47;2.70;;;9.40;99.90;;;;;;5118757;27;20272;-90
2022/04/09 10:48:06;;;;;;;6.67;2.30;;;9.40;99.90;;;;;;5118307;28;20663;-88
2022/04/09 10:50:56;;;;;;;5.77;2.30;;;9.60;99.90;;;;;;5142271;27;20204;-92
2022/04/09 10:53:27;;;;;;;5.43;1.77;;;9.80;99.90;;;;;;5145994;27;20192;-91
2022/04/09 10:56:17;;;;;;;6.63;2.47;;;9.70;99.90;;;;;;5145175;27;20204;-94
2022/04/09 10:59:33;;;;;;;6.40;2.40;;;9.60;99.90;;;;;;5141639;27;20231;-89
2022/04/09 11:02:00;;;;;;;3.23;2.73;;;9.50;99.90;;;;;;5073582;28;20225;-83
2022/04/09 11:04:45;;;;;;;6.47;2.60;;;8.50;99.90;;;;;;5131736;27;20312;-85
2022/04/09 11:07:14;;;;;;;4.77;2.70;;;8.10;99.90;;;;;;5137162;27;20203;-88
2022/04/09 11:09:55;;;;;;;4.33;2.60;;;8.10;99.90;;;;;;5136990;27;20200;-89
2022/04/09 11:12:26;;;;;;;4.82;2.13;;;8.20;99.90;;;;;;5137371;27;20423;-85
2022/04/09 11:14:57;;;;;;;4.30;1.70;;;8.40;99.90;;;;;;5137637;27;20195;-86
2022/04/09 11:17:29;;;;;;;4.10;1.10;;;8.70;99.90;;;;;;5137496;27;20227;-82
2022/04/09 11:20:02;;;;;;;4.20;1.50;;;8.80;99.90;;;;;;5137355;27;20200;-90
2022/04/09 11:22:34;;;;;;;2.20;1.17;;;8.90;99.90;;;;;;5137511;27;20203;-87
2022/04/09 11:25:09;;;;;;;2.43;1.77;;;8.90;99.90;;;;;;5137925;27;20195;-83
2022/04/09 11:27:36;;;;;;;3.80;2.07;;;9.30;99.90;;;;;;5136662;27;20207;-83
2022/04/09 11:30:03;;;;;;;5.07;2.10;;;9.50;99.90;;;;;;5136377;27;20700;-80
2022/04/09 11:32:32;;;;;;;2.83;1.17;;;9.80;99.90;;;;;;5136254;27;20196;-79
2022/04/09 11:35:01;;;;;;;3.10;1.10;;;10.00;99.90;;;;;;5120596;27;20212;-79
2022/04/09 11:37:30;;;;;;;4.00;1.17;;;10.20;99.90;;;;;;5115013;28;20322;-78
2022/04/09 11:39:59;;;;;;;2.87;1.17;;;10.10;99.90;;;;;;5115000;28;20216;-85
2022/04/09 11:42:26;;;;;;;4.33;1.20;;;10.10;99.90;;;;;;5114073;28;20279;-80
2022/04/09 11:44:53;;;;;;;4.97;1.33;;;10.10;99.90;;;;;;5117753;27;20232;-80
2022/04/09 11:47:24;;;;;;;1.47;1.17;;;10.30;99.90;;;;;;5117853;27;20198;-80
2022/04/09 11:49:52;;;;;;;2.83;1.30;;;10.10;99.90;;;;;;5115239;27;20212;-79
2022/04/09 11:52:28;;;;;;;5.70;1.30;;;10.30;99.90;;;;;;5116183;28;20257;-78
2022/04/09 11:54:56;;;;;;;4.80;1.80;;;10.40;99.90;;;;;;5116492;28;20279;-78
2022/04/09 11:57:24;;;;;;;3.47;1.60;;;10.60;99.90;;;;;;5115948;28;20243;-80
2022/04/09 11:59:53;;;;;;;3.15;1.42;;;10.90;99.90;;;;;;5117113;27;20488;-77
2022/04/09 12:02:22;;;;;;;3.37;1.30;;;11.00;99.90;;;;;;5119661;27;20657;-79
2022/04/09 12:04:50;;;;;;;2.10;1.13;;;10.50;99.90;;;;;;5126446;27;20194;-86
2022/04/09 12:07:24;;;;;;;3.97;1.47;;;10.30;99.90;;;;;;5126128;27;20558;-87
2022/04/09 12:09:58;;;;;;;5.37;1.10;;;10.30;99.90;;;;;;5125425;27;20228;-85
2022/04/09 12:12:25;;;;;;;5.50;1.20;;;10.40;99.90;;;;;;5130187;27;20200;-86
2022/04/09 12:14:54;;;;;;;4.83;1.40;;;10.50;99.90;;;;;;5125641;27;20196;-87
2022/04/09 12:17:23;;;;;;;4.80;1.30;;;10.60;99.90;;;;;;5121500;27;20200;-87
2022/04/09 12:19:50;;;;;;;3.20;1.50;;;10.70;99.90;;;;;;5123925;27;20416;-87
2022/04/09 12:22:26;;;;;;;3.80;1.13;;;10.80;99.90;;;;;;5128544;27;20227;-84
2022/04/09 12:24:56;;;;;;;2.20;1.10;;;10.90;99.90;;;;;;5128347;27;20195;-82
2022/04/09 12:27:45;;;;;;;2.27;1.20;;;10.80;99.90;;;;;;5135712;27;20223;-87
2022/04/09 12:30:14;;;;;;;1.87;0.90;;;10.90;99.90;;;;;;5137278;27;20207;-86
2022/04/09 12:32:45;;;;;;;1.63;0.97;;;11.00;99.90;;;;;;5135383;27;20192;-85
2022/04/09 12:35:14;;;;;;;3.20;1.47;;;10.70;99.90;;;;;;5124025;27;20196;-82
2022/04/09 12:37:49;;;;;;;3.90;1.37;;;10.60;99.90;;;;;;5125850;27;20189;-81
2022/04/09 12:40:20;;;;;;;1.58;1.00;;;10.60;99.70;;;;;;5121471;27;20789;-86
2022/04/09 12:42:50;;;;;;;2.47;1.00;;;10.70;97.20;;;;;;5123629;27;20666;-88
2022/04/09 12:45:21;;;;;;;2.43;1.20;;;10.70;97.90;;;;;;5129849;27;20192;-87
2022/04/09 12:47:54;;;;;;;5.20;1.20;;;10.90;98.10;;;;;;5127500;27;20242;-90
2022/04/09 12:50:24;;;;;;;2.97;1.13;;;11.00;98.00;;;;;;5124533;27;20196;-90
2022/04/09 12:52:52;;;;;;;2.30;1.27;;;11.00;97.20;;;;;;5127685;27;20183;-89
2022/04/09 12:55:20;;;;;;;2.23;1.60;;;10.90;97.60;;;;;;5138022;27;20204;-85
2022/04/09 12:57:49;;;;;;;2.60;1.10;;;11.00;98.50;;;;;;5125425;27;20180;-87
2022/04/09 13:00:17;;;;;;;2.53;1.30;;;11.10;97.60;;;;;;5124228;27;20202;-89
2022/04/09 13:02:46;;;;;;;3.20;1.70;;;11.10;97.40;;;;;;5133373;27;20408;-91
2022/04/09 13:05:21;;;;;;;3.47;1.30;;;11.10;97.40;;;;;;5137513;27;20192;-86
2022/04/09 13:07:53;;;;;;;2.17;1.30;;;11.20;98.20;;;;;;5137664;27;20301;-89